Time,TemperatureF,DewpointF,PressureIn,WindDirection,WindDirectionDegrees,WindSpeedMPH,WindSpeedGustMPH,Humidity,HourlyPrecipIn,Conditions,Clouds,dailyrainin,SoftwareType,DateUTC
2013-03-22 00:00:00,56.2,48.0,29.97,WNW,291,0.0,0.0,74,0.00,,,0.00,VWS V14.01,2013-03-22 04:00:00,
2013-03-22 00:02:00,56.2,48.1,29.97,WNW,291,0.0,0.0,74,0.00,,,0.00,VWS V14.01,2013-03-22 04:02:00,
2013-03-22 00:07:00,55.9,48.2,29.97,WNW,291,0.0,0.0,75,0.00,,,0.00,VWS V14.01,2013-03-22 04:07:00,
2013-03-22 00:12:00,55.9,48.1,29.97,WNW,291,0.0,0.0,75,0.00,,,0.00,VWS V14.01,2013-03-22 04:12:00,
2013-03-22 00:17:00,55.6,48.1,29.97,WNW,291,0.0,0.0,76,0.00,,,0.00,VWS V14.01,2013-03-22 04:17:00,
2013-03-22 00:22:00,55.5,48.0,29.97,WNW,291,0.0,0.0,76,0.00,,,0.00,VWS V14.01,2013-03-22 04:22:00,
2013-03-22 00:27:00,55.3,48.0,29.97,WNW,291,0.0,0.0,76,0.00,,,0.00,VWS V14.01,2013-03-22 04:27:00,
2013-03-22 00:32:00,55.3,48.1,29.97,WNW,291,0.0,0.0,77,0.00,,,0.00,VWS V14.01,2013-03-22 04:32:00,
2013-03-22 00:37:00,55.1,48.3,29.97,WNW,291,0.0,0.0,78,0.00,,,0.00,VWS V14.01,2013-03-22 04:37:00,
2013-03-22 00:42:00,55.1,48.3,29.97,WNW,291,0.0,0.0,78,0.00,,,0.00,VWS V14.01,2013-03-22 04:42:00,
2013-03-22 00:47:00,54.9,48.0,29.97,WNW,291,0.0,0.0,78,0.00,,,0.00,VWS V14.01,2013-03-22 04:47:00,
2013-03-22 00:52:00,55.0,48.0,29.97,WNW,291,0.0,0.0,77,0.00,,,0.00,VWS V14.01,2013-03-22 04:52:00,
2013-03-22 00:57:00,54.8,48.0,29.97,WNW,291,0.0,0.0,78,0.00,,,0.00,VWS V14.01,2013-03-22 04:57:00,
2013-03-22 01:02:00,54.9,48.1,29.97,WNW,291,0.0,0.0,78,0.00,,,0.00,VWS V14.01,2013-03-22 05:02:00,
2013-03-22 01:07:00,54.6,47.8,29.97,WNW,291,0.0,0.0,78,0.00,,,0.00,VWS V14.01,2013-03-22 05:07:00,
2013-03-22 01:12:00,54.5,47.8,29.96,WNW,291,0.0,0.0,78,0.00,,,0.00,VWS V14.01,2013-03-22 05:12:00,
2013-03-22 01:17:00,54.5,48.0,29.97,WNW,291,0.0,0.0,78,0.00,,,0.00,VWS V14.01,2013-03-22 05:17:00,
2013-03-22 01:22:00,54.3,47.7,29.96,WNW,291,0.0,0.0,78,0.00,,,0.00,VWS V14.01,2013-03-22 05:22:00,
2013-03-22 01:27:00,54.0,47.6,29.96,WNW,291,0.0,0.0,79,0.00,,,0.00,VWS V14.01,2013-03-22 05:27:00,
2013-03-22 01:32:00,53.9,47.5,29.96,WNW,291,0.0,0.0,79,0.00,,,0.00,VWS V14.01,2013-03-22 05:32:00,
2013-03-22 01:37:00,53.6,47.5,29.96,WNW,291,0.0,0.0,80,0.00,,,0.00,VWS V14.01,2013-03-22 05:37:00,
2013-03-22 01:42:00,53.5,47.5,29.96,WNW,291,0.0,0.0,80,0.00,,,0.00,VWS V14.01,2013-03-22 05:42:00,
2013-03-22 01:47:00,53.2,47.5,29.96,WNW,291,0.0,0.0,81,0.00,,,0.00,VWS V14.01,2013-03-22 05:47:00,
2013-03-22 01:52:00,53.1,47.5,29.96,WNW,291,0.0,0.0,81,0.00,,,0.00,VWS V14.01,2013-03-22 05:52:00,
2013-03-22 01:57:00,53.0,47.6,29.96,WNW,291,0.0,0.0,82,0.00,,,0.00,VWS V14.01,2013-03-22 05:57:00,
2013-03-22 02:02:00,52.9,47.6,29.96,WNW,291,0.0,0.0,82,0.00,,,0.00,VWS V14.01,2013-03-22 06:02:00,
2013-03-22 02:07:00,52.8,47.5,29.95,WNW,291,0.0,0.0,82,0.00,,,0.00,VWS V14.01,2013-03-22 06:07:00,
2013-03-22 02:12:00,52.5,47.3,29.95,WNW,291,0.0,0.0,82,0.00,,,0.00,VWS V14.01,2013-03-22 06:12:00,
2013-03-22 02:17:00,52.3,47.3,29.95,WNW,291,0.0,0.0,83,0.00,,,0.00,VWS V14.01,2013-03-22 06:17:00,
2013-03-22 02:22:00,52.2,47.3,29.95,WNW,291,0.0,0.0,83,0.00,,,0.00,VWS V14.01,2013-03-22 06:22:00,
2013-03-22 02:27:00,52.2,47.3,29.95,WNW,291,0.0,0.0,83,0.00,,,0.00,VWS V14.01,2013-03-22 06:27:00,
2013-03-22 02:32:00,52.0,47.2,29.96,WNW,291,0.0,0.0,84,0.00,,,0.00,VWS V14.01,2013-03-22 06:32:00,
2013-03-22 02:37:00,51.8,47.0,29.96,WNW,291,0.0,0.0,84,0.00,,,0.00,VWS V14.01,2013-03-22 06:37:00,
2013-03-22 02:42:00,51.7,47.1,29.96,WNW,291,0.0,0.0,84,0.00,,,0.00,VWS V14.01,2013-03-22 06:42:00,
2013-03-22 02:47:00,51.4,46.9,29.95,WNW,291,0.0,0.0,85,0.00,,,0.00,VWS V14.01,2013-03-22 06:47:00,
2013-03-22 02:52:00,51.4,46.9,29.96,WNW,291,0.0,0.0,85,0.00,,,0.00,VWS V14.01,2013-03-22 06:52:00,
2013-03-22 02:57:00,51.3,46.9,29.96,WNW,291,0.0,0.0,85,0.00,,,0.00,VWS V14.01,2013-03-22 06:57:00,
2013-03-22 03:02:00,51.3,47.0,29.95,WNW,291,0.0,0.0,85,0.00,,,0.00,VWS V14.01,2013-03-22 07:02:00,
2013-03-22 03:07:00,51.1,46.9,29.95,WNW,291,0.0,0.0,86,0.00,,,0.00,VWS V14.01,2013-03-22 07:07:00,
2013-03-22 03:12:00,50.9,46.8,29.95,WNW,291,0.0,0.0,86,0.00,,,0.00,VWS V14.01,2013-03-22 07:12:00,
2013-03-22 03:17:00,50.9,47.0,29.95,WNW,291,0.0,0.0,86,0.00,,,0.00,VWS V14.01,2013-03-22 07:17:00,
2013-03-22 03:22:00,50.8,46.9,29.95,WNW,291,0.0,0.0,86,0.00,,,0.00,VWS V14.01,2013-03-22 07:22:00,
2013-03-22 03:27:00,50.9,47.1,29.95,WNW,291,0.0,0.0,87,0.00,,,0.00,VWS V14.01,2013-03-22 07:27:00,
2013-03-22 03:32:00,50.7,46.9,29.95,WNW,291,0.0,0.0,87,0.00,,,0.00,VWS V14.01,2013-03-22 07:32:00,
2013-03-22 03:37:00,50.7,47.0,29.95,WNW,291,0.0,0.0,87,0.00,,,0.00,VWS V14.01,2013-03-22 07:37:00,
2013-03-22 03:42:00,50.6,46.9,29.94,WNW,291,0.0,0.0,87,0.00,,,0.00,VWS V14.01,2013-03-22 07:42:00,
2013-03-22 03:47:00,50.3,46.7,29.94,WNW,291,0.0,0.0,88,0.00,,,0.00,VWS V14.01,2013-03-22 07:47:00,
2013-03-22 03:52:00,50.2,46.7,29.95,WNW,291,0.0,0.0,88,0.00,,,0.00,VWS V14.01,2013-03-22 07:52:00,
2013-03-22 03:57:00,50.2,46.7,29.95,WNW,291,0.0,0.0,88,0.00,,,0.00,VWS V14.01,2013-03-22 07:57:00,
2013-03-22 04:02:00,50.2,46.8,29.95,WNW,291,0.0,0.0,88,0.00,,,0.00,VWS V14.01,2013-03-22 08:02:00,
2013-03-22 04:07:00,50.3,47.0,29.94,WNW,291,0.0,0.0,88,0.00,,,0.00,VWS V14.01,2013-03-22 08:07:00,
2013-03-22 04:12:00,50.1,46.7,29.95,WNW,291,0.0,0.0,88,0.00,,,0.00,VWS V14.01,2013-03-22 08:12:00,
2013-03-22 04:17:00,50.3,47.0,29.95,WNW,291,0.0,0.0,88,0.00,,,0.00,VWS V14.01,2013-03-22 08:17:00,
2013-03-22 04:22:00,50.2,46.8,29.95,WNW,291,0.0,0.0,88,0.00,,,0.00,VWS V14.01,2013-03-22 08:22:00,
2013-03-22 04:27:00,50.2,46.9,29.95,WNW,291,0.0,0.0,88,0.00,,,0.00,VWS V14.01,2013-03-22 08:27:00,
2013-03-22 04:32:00,50.1,46.9,29.95,WNW,291,0.0,0.0,89,0.00,,,0.00,VWS V14.01,2013-03-22 08:32:00,
2013-03-22 04:37:00,50.0,46.8,29.95,WNW,291,0.0,0.0,89,0.00,,,0.00,VWS V14.01,2013-03-22 08:37:00,
2013-03-22 04:42:00,49.8,46.7,29.95,WNW,291,0.0,0.0,89,0.00,,,0.00,VWS V14.01,2013-03-22 08:42:00,
2013-03-22 04:47:00,49.8,46.7,29.95,WNW,291,0.0,0.0,89,0.00,,,0.00,VWS V14.01,2013-03-22 08:47:00,
2013-03-22 04:52:00,49.9,46.9,29.95,WNW,291,0.0,0.0,90,0.00,,,0.00,VWS V14.01,2013-03-22 08:52:00,
2013-03-22 04:57:00,49.8,46.8,29.95,WNW,291,0.0,0.0,90,0.00,,,0.00,VWS V14.01,2013-03-22 08:57:00,
2013-03-22 05:02:00,49.7,46.7,29.95,WNW,291,0.0,0.0,89,0.00,,,0.00,VWS V14.01,2013-03-22 09:02:00,
2013-03-22 05:07:00,49.7,46.7,29.95,WNW,291,0.0,0.0,90,0.00,,,0.00,VWS V14.01,2013-03-22 09:07:00,
2013-03-22 05:12:00,49.5,46.6,29.95,WNW,291,0.0,0.0,90,0.00,,,0.00,VWS V14.01,2013-03-22 09:12:00,
2013-03-22 05:17:00,49.6,46.7,29.95,WNW,291,0.0,0.0,90,0.00,,,0.00,VWS V14.01,2013-03-22 09:17:00,
2013-03-22 05:22:00,49.5,46.6,29.95,WNW,291,0.0,0.0,90,0.00,,,0.00,VWS V14.01,2013-03-22 09:22:00,
2013-03-22 05:27:00,49.4,46.5,29.95,WNW,291,0.0,0.0,90,0.00,,,0.00,VWS V14.01,2013-03-22 09:27:00,
2013-03-22 05:32:00,49.5,46.7,29.95,WNW,291,0.0,0.0,90,0.00,,,0.00,VWS V14.01,2013-03-22 09:32:00,
2013-03-22 05:37:00,49.4,46.6,29.95,WNW,291,0.0,0.0,90,0.00,,,0.00,VWS V14.01,2013-03-22 09:37:00,
2013-03-22 05:42:00,49.4,46.6,29.95,WNW,291,0.0,0.0,90,0.00,,,0.00,VWS V14.01,2013-03-22 09:42:00,
2013-03-22 05:47:00,49.3,46.6,29.96,WNW,291,0.0,0.0,90,0.00,,,0.00,VWS V14.01,2013-03-22 09:47:00,
2013-03-22 05:52:00,49.3,46.6,29.97,WNW,291,0.0,0.0,90,0.00,,,0.00,VWS V14.01,2013-03-22 09:52:00,
2013-03-22 05:57:00,49.3,46.6,29.97,WNW,291,0.0,0.0,90,0.00,,,0.00,VWS V14.01,2013-03-22 09:57:00,
2013-03-22 06:02:00,49.3,46.6,29.97,WNW,291,0.0,0.0,90,0.00,,,0.00,VWS V14.01,2013-03-22 10:02:00,
2013-03-22 06:07:00,49.0,46.4,29.98,WNW,291,0.0,0.0,91,0.00,,,0.00,VWS V14.01,2013-03-22 10:07:00,
2013-03-22 06:12:00,49.2,46.6,29.98,WNW,291,0.0,0.0,91,0.00,,,0.00,VWS V14.01,2013-03-22 10:12:00,
2013-03-22 06:17:00,49.2,46.6,29.98,WNW,291,0.0,0.0,91,0.00,,,0.00,VWS V14.01,2013-03-22 10:17:00,
2013-03-22 06:22:00,49.0,46.4,29.97,WNW,291,0.0,0.0,91,0.00,,,0.00,VWS V14.01,2013-03-22 10:22:00,
2013-03-22 06:27:00,49.0,46.4,29.98,WNW,291,0.0,0.0,91,0.00,,,0.00,VWS V14.01,2013-03-22 10:27:00,
2013-03-22 06:32:00,48.9,46.3,29.99,WNW,291,0.0,0.0,91,0.00,,,0.00,VWS V14.01,2013-03-22 10:32:00,
2013-03-22 06:37:00,48.7,46.2,29.99,WNW,291,0.0,0.0,91,0.00,,,0.00,VWS V14.01,2013-03-22 10:37:00,
2013-03-22 06:42:00,48.7,46.2,29.99,WNW,291,0.0,0.0,91,0.00,,,0.00,VWS V14.01,2013-03-22 10:42:00,
2013-03-22 06:47:00,48.6,46.1,29.99,WNW,291,0.0,0.0,91,0.00,,,0.00,VWS V14.01,2013-03-22 10:47:00,
2013-03-22 06:52:00,48.6,46.1,30.00,WNW,291,0.0,0.0,91,0.00,,,0.00,VWS V14.01,2013-03-22 10:52:00,
2013-03-22 06:57:00,48.6,46.1,30.01,WNW,291,0.0,0.0,91,0.00,,,0.00,VWS V14.01,2013-03-22 10:57:00,
2013-03-22 07:02:00,48.6,46.1,30.01,WNW,291,0.0,0.0,91,0.00,,,0.00,VWS V14.01,2013-03-22 11:02:00,
2013-03-22 07:07:00,48.5,46.0,30.02,WNW,291,0.0,0.0,91,0.00,,,0.00,VWS V14.01,2013-03-22 11:07:00,
2013-03-22 07:12:00,48.6,46.1,30.02,WNW,291,0.0,0.0,91,0.00,,,0.00,VWS V14.01,2013-03-22 11:12:00,
2013-03-22 07:17:00,48.5,46.0,30.02,WNW,291,0.0,0.0,91,0.00,,,0.00,VWS V14.01,2013-03-22 11:17:00,
2013-03-22 07:22:00,48.4,45.9,30.02,WNW,291,0.0,0.0,91,0.00,,,0.00,VWS V14.01,2013-03-22 11:22:00,
2013-03-22 07:27:00,48.5,46.0,30.02,WNW,291,0.0,0.0,91,0.00,,,0.00,VWS V14.01,2013-03-22 11:27:00,
2013-03-22 07:32:00,48.3,45.8,30.02,WNW,291,0.0,0.0,91,0.00,,,0.00,VWS V14.01,2013-03-22 11:32:00,
2013-03-22 07:37:00,48.3,45.8,30.03,WNW,291,0.0,0.0,91,0.00,,,0.00,VWS V14.01,2013-03-22 11:37:00,
2013-03-22 07:42:00,48.2,45.7,30.03,WNW,291,0.0,0.0,91,0.00,,,0.00,VWS V14.01,2013-03-22 11:42:00,
2013-03-22 07:47:00,48.2,45.7,30.03,WNW,291,0.0,0.0,91,0.00,,,0.00,VWS V14.01,2013-03-22 11:47:00,
2013-03-22 07:52:00,48.3,45.9,30.03,WNW,291,0.0,0.0,91,0.00,,,0.00,VWS V14.01,2013-03-22 11:52:00,
2013-03-22 07:57:00,48.1,45.7,30.03,WNW,291,0.0,0.0,91,0.00,,,0.00,VWS V14.01,2013-03-22 11:57:00,
2013-03-22 08:02:00,48.2,45.8,30.03,WNW,291,0.0,0.0,92,0.00,,,0.00,VWS V14.01,2013-03-22 12:02:00,
2013-03-22 08:07:00,48.2,45.9,30.03,WNW,291,0.0,0.0,92,0.00,,,0.00,VWS V14.01,2013-03-22 12:07:00,
2013-03-22 08:12:00,48.3,46.0,30.04,WNW,291,0.0,0.0,92,0.00,,,0.00,VWS V14.01,2013-03-22 12:12:00,
2013-03-22 08:17:00,48.4,46.1,30.04,WNW,291,0.0,0.0,92,0.00,,,0.00,VWS V14.01,2013-03-22 12:17:00,
2013-03-22 08:22:00,48.6,46.3,30.03,WNW,291,0.0,0.0,92,0.00,,,0.00,VWS V14.01,2013-03-22 12:22:00,
2013-03-22 08:27:00,48.7,46.5,30.03,WNW,291,0.0,0.0,92,0.00,,,0.00,VWS V14.01,2013-03-22 12:27:00,
2013-03-22 08:32:00,49.1,46.8,30.03,WNW,291,0.0,0.0,92,0.00,,,0.00,VWS V14.01,2013-03-22 12:32:00,
2013-03-22 08:37:00,49.3,47.0,30.03,WNW,291,0.0,0.0,92,0.00,,,0.00,VWS V14.01,2013-03-22 12:37:00,
2013-03-22 08:42:00,49.6,47.2,30.04,WNW,291,0.0,0.0,91,0.00,,,0.00,VWS V14.01,2013-03-22 12:42:00,
2013-03-22 08:47:00,50.3,47.7,30.04,WNW,291,0.0,0.0,91,0.00,,,0.00,VWS V14.01,2013-03-22 12:47:00,
2013-03-22 08:52:00,50.8,48.1,30.04,WNW,291,0.0,0.0,90,0.00,,,0.00,VWS V14.01,2013-03-22 12:52:00,
2013-03-22 08:57:00,51.3,48.6,30.04,WNW,291,0.0,0.0,90,0.00,,,0.00,VWS V14.01,2013-03-22 12:57:00,
2013-03-22 09:02:00,51.9,49.0,30.04,WNW,291,0.0,0.0,90,0.00,,,0.00,VWS V14.01,2013-03-22 13:02:00,
2013-03-22 09:07:00,52.6,49.2,30.05,WNW,291,0.0,0.0,88,0.00,,,0.00,VWS V14.01,2013-03-22 13:07:00,
2013-03-22 09:12:00,53.2,49.4,30.05,WNW,291,0.0,0.0,87,0.00,,,0.00,VWS V14.01,2013-03-22 13:12:00,
2013-03-22 09:17:00,53.8,49.7,30.05,WNW,291,0.0,0.0,86,0.00,,,0.00,VWS V14.01,2013-03-22 13:17:00,
2013-03-22 09:22:00,54.3,49.7,30.05,WNW,291,0.0,0.0,84,0.00,,,0.00,VWS V14.01,2013-03-22 13:22:00,
2013-03-22 09:27:00,54.9,50.3,30.04,WNW,291,0.0,0.0,84,0.00,,,0.00,VWS V14.01,2013-03-22 13:27:00,
2013-03-22 09:32:00,55.4,50.8,30.04,WNW,291,0.0,0.0,85,0.00,,,0.00,VWS V14.01,2013-03-22 13:32:00,
2013-03-22 09:37:00,55.9,50.0,30.04,WNW,291,0.0,0.0,80,0.00,,,0.00,VWS V14.01,2013-03-22 13:37:00,
2013-03-22 09:42:00,56.5,50.3,30.05,WNW,291,0.0,0.0,80,0.00,,,0.00,VWS V14.01,2013-03-22 13:42:00,
2013-03-22 09:47:00,56.9,50.9,30.05,WNW,291,0.0,0.0,80,0.00,,,0.00,VWS V14.01,2013-03-22 13:47:00,
2013-03-22 09:52:00,57.4,51.1,30.05,WNW,291,0.0,0.0,79,0.00,,,0.00,VWS V14.01,2013-03-22 13:52:00,
2013-03-22 09:57:00,57.6,51.3,30.05,WNW,291,0.0,0.0,80,0.00,,,0.00,VWS V14.01,2013-03-22 13:57:00,
2013-03-22 10:02:00,58.7,51.4,30.05,WNW,291,0.0,0.0,77,0.00,,,0.00,VWS V14.01,2013-03-22 14:02:00,
2013-03-22 10:07:00,59.5,51.1,30.05,WNW,291,0.0,0.0,74,0.00,,,0.00,VWS V14.01,2013-03-22 14:07:00,
2013-03-22 10:12:00,60.1,49.8,30.04,WNW,291,0.0,0.0,69,0.00,,,0.00,VWS V14.01,2013-03-22 14:12:00,
2013-03-22 10:17:00,60.5,50.8,30.05,WNW,291,0.0,0.0,70,0.00,,,0.00,VWS V14.01,2013-03-22 14:17:00,
2013-03-22 10:22:00,61.4,51.5,30.05,WNW,291,0.0,0.0,70,0.00,,,0.00,VWS V14.01,2013-03-22 14:22:00,
2013-03-22 10:27:00,62.2,50.4,30.05,WNW,291,0.0,0.0,65,0.00,,,0.00,VWS V14.01,2013-03-22 14:27:00,
2013-03-22 10:32:00,62.5,50.1,30.05,WNW,291,0.0,0.0,64,0.00,,,0.00,VWS V14.01,2013-03-22 14:32:00,
2013-03-22 10:37:00,63.7,50.1,30.05,WNW,291,0.0,0.0,61,0.00,,,0.00,VWS V14.01,2013-03-22 14:37:00,
2013-03-22 10:42:00,64.1,50.5,30.05,WNW,291,0.0,0.0,61,0.00,,,0.00,VWS V14.01,2013-03-22 14:42:00,
2013-03-22 10:47:00,65.0,50.1,30.05,WNW,291,0.0,2.2,58,0.00,,,0.00,VWS V14.01,2013-03-22 14:47:00,
2013-03-22 10:52:00,65.3,50.4,30.05,WNW,291,0.0,0.0,58,0.00,,,0.00,VWS V14.01,2013-03-22 14:52:00,
2013-03-22 10:57:00,65.7,49.8,30.05,East,89,0.0,4.5,56,0.00,,,0.00,VWS V14.01,2013-03-22 14:57:00,
2013-03-22 11:02:00,66.3,49.4,30.05,ENE,65,6.1,6.2,54,0.00,,,0.00,VWS V14.01,2013-03-22 15:02:00,
2013-03-22 11:07:00,67.0,50.5,30.05,NE,39,0.0,0.0,55,0.00,,,0.00,VWS V14.01,2013-03-22 15:07:00,
2013-03-22 11:12:00,67.0,51.4,30.05,NE,39,0.0,0.0,57,0.00,,,0.00,VWS V14.01,2013-03-22 15:12:00,
2013-03-22 11:17:00,67.1,50.8,30.05,NE,39,0.0,0.0,56,0.00,,,0.00,VWS V14.01,2013-03-22 15:17:00,
2013-03-22 11:22:00,67.3,51.2,30.05,NE,39,0.0,0.0,56,0.00,,,0.00,VWS V14.01,2013-03-22 15:22:00,
2013-03-22 11:28:00,67.8,51.3,30.04,NE,39,0.0,0.0,55,0.00,,,0.00,VWS V14.01,2013-03-22 15:28:00,
2013-03-22 11:33:00,68.1,51.5,30.04,NE,39,0.0,0.0,55,0.00,,,0.00,VWS V14.01,2013-03-22 15:33:00,
2013-03-22 11:38:00,68.8,50.8,30.05,NE,39,0.0,0.0,53,0.00,,,0.00,VWS V14.01,2013-03-22 15:38:00,
2013-03-22 11:43:00,69.3,51.0,30.05,NE,39,0.0,0.0,52,0.00,,,0.00,VWS V14.01,2013-03-22 15:43:00,
2013-03-22 11:48:00,69.9,52.1,30.05,NE,39,0.0,0.0,53,0.00,,,0.00,VWS V14.01,2013-03-22 15:48:00,
2013-03-22 11:53:00,70.2,51.1,30.05,NE,39,0.0,0.0,51,0.00,,,0.00,VWS V14.01,2013-03-22 15:53:00,
2013-03-22 11:58:00,70.4,51.3,30.05,NE,39,0.0,0.0,51,0.00,,,0.00,VWS V14.01,2013-03-22 15:58:00,
2013-03-22 12:03:00,70.7,52.8,30.04,NE,39,0.0,0.0,53,0.00,,,0.00,VWS V14.01,2013-03-22 16:03:00,
2013-03-22 12:08:00,71.0,50.5,30.04,SE,129,0.0,0.0,48,0.00,,,0.00,VWS V14.01,2013-03-22 16:08:00,
2013-03-22 12:13:00,71.3,49.8,30.05,SE,129,0.0,0.0,47,0.00,,,0.00,VWS V14.01,2013-03-22 16:13:00,
2013-03-22 12:18:00,71.9,50.3,30.04,SE,129,0.0,0.0,46,0.00,,,0.00,VWS V14.01,2013-03-22 16:18:00,
2013-03-22 12:23:00,72.3,48.5,30.04,SE,129,0.0,0.0,43,0.00,,,0.00,VWS V14.01,2013-03-22 16:23:00,
2013-03-22 12:28:00,72.4,50.1,30.04,SE,129,0.0,0.0,45,0.00,,,0.00,VWS V14.01,2013-03-22 16:28:00,
2013-03-22 12:33:00,73.3,50.8,30.03,SE,129,0.0,0.0,45,0.00,,,0.00,VWS V14.01,2013-03-22 16:33:00,
2013-03-22 12:38:00,73.8,50.0,30.03,SE,129,0.0,0.0,43,0.00,,,0.00,VWS V14.01,2013-03-22 16:38:00,
2013-03-22 12:43:00,74.2,50.5,30.02,SE,129,0.0,0.0,43,0.00,,,0.00,VWS V14.01,2013-03-22 16:43:00,
2013-03-22 12:48:00,74.7,50.8,30.02,SE,129,0.0,0.0,43,0.00,,,0.00,VWS V14.01,2013-03-22 16:48:00,
2013-03-22 12:53:00,75.0,49.1,30.02,SE,129,0.0,0.0,40,0.00,,,0.00,VWS V14.01,2013-03-22 16:53:00,
2013-03-22 12:58:00,75.2,50.8,30.01,SE,129,0.0,0.0,42,0.00,,,0.00,VWS V14.01,2013-03-22 16:58:00,
2013-03-22 13:03:00,75.0,50.1,30.01,SE,129,0.0,0.0,42,0.00,,,0.00,VWS V14.01,2013-03-22 17:03:00,
2013-03-22 13:08:00,75.3,51.8,30.00,SE,129,0.0,0.0,44,0.00,,,0.00,VWS V14.01,2013-03-22 17:08:00,
2013-03-22 13:13:00,75.5,51.5,30.00,SE,129,0.0,0.0,43,0.00,,,0.00,VWS V14.01,2013-03-22 17:13:00,
2013-03-22 13:18:00,75.3,51.7,30.01,SE,129,0.0,0.0,44,0.00,,,0.00,VWS V14.01,2013-03-22 17:18:00,
2013-03-22 13:23:00,74.7,51.1,30.00,SE,129,0.0,0.0,44,0.00,,,0.00,VWS V14.01,2013-03-22 17:23:00,
2013-03-22 13:28:00,74.8,51.7,30.00,ENE,76,0.0,0.0,44,0.00,,,0.00,VWS V14.01,2013-03-22 17:28:00,
2013-03-22 13:33:00,75.3,52.0,30.00,ENE,76,0.0,0.0,44,0.00,,,0.00,VWS V14.01,2013-03-22 17:33:00,
2013-03-22 13:38:00,76.0,52.4,30.00,ENE,76,0.0,0.0,44,0.00,,,0.00,VWS V14.01,2013-03-22 17:38:00,
2013-03-22 13:43:00,76.5,53.4,30.00,ENE,76,0.0,0.0,45,0.00,,,0.00,VWS V14.01,2013-03-22 17:43:00,
2013-03-22 13:48:00,77.0,51.5,30.00,ENE,76,0.0,0.0,41,0.00,,,0.00,VWS V14.01,2013-03-22 17:48:00,
2013-03-22 13:53:00,77.0,52.4,29.99,ENE,76,0.0,0.0,42,0.00,,,0.00,VWS V14.01,2013-03-22 17:53:00,
2013-03-22 13:58:00,76.9,51.2,29.99,ENE,76,0.0,0.0,41,0.00,,,0.00,VWS V14.01,2013-03-22 17:58:00,
2013-03-22 14:03:00,77.1,52.5,29.98,ENE,76,0.0,0.0,42,0.00,,,0.00,VWS V14.01,2013-03-22 18:03:00,
2013-03-22 14:08:00,77.5,53.8,29.98,ENE,76,0.0,0.0,44,0.00,,,0.00,VWS V14.01,2013-03-22 18:08:00,
2013-03-22 14:13:00,78.1,54.9,29.98,ENE,76,0.0,0.0,45,0.00,,,0.00,VWS V14.01,2013-03-22 18:13:00,
2013-03-22 14:18:00,78.1,54.1,29.98,ENE,76,0.0,0.0,43,0.00,,,0.00,VWS V14.01,2013-03-22 18:18:00,
2013-03-22 14:23:00,78.3,54.5,29.98,ENE,76,0.0,0.0,44,0.00,,,0.00,VWS V14.01,2013-03-22 18:23:00,
2013-03-22 14:28:00,78.3,54.7,29.97,East,94,0.0,0.0,44,0.00,,,0.00,VWS V14.01,2013-03-22 18:28:00,
2013-03-22 14:33:00,78.2,55.4,29.97,East,94,0.0,0.0,45,0.00,,,0.00,VWS V14.01,2013-03-22 18:33:00,
2013-03-22 14:38:00,78.5,54.9,29.97,East,94,0.0,0.0,44,0.00,,,0.00,VWS V14.01,2013-03-22 18:38:00,
2013-03-22 14:43:00,78.4,55.9,29.97,East,94,0.0,0.0,46,0.00,,,0.00,VWS V14.01,2013-03-22 18:43:00,
2013-03-22 14:48:00,78.8,55.2,29.97,East,94,0.0,0.0,44,0.00,,,0.00,VWS V14.01,2013-03-22 18:48:00,
2013-03-22 14:53:00,79.3,56.0,29.97,East,94,0.0,0.0,45,0.00,,,0.00,VWS V14.01,2013-03-22 18:53:00,
2013-03-22 14:58:00,79.7,56.4,29.97,East,94,0.0,0.0,45,0.00,,,0.00,VWS V14.01,2013-03-22 18:58:00,
2013-03-22 15:03:00,79.9,54.8,29.96,SE,143,4.7,4.7,42,0.00,,,0.00,VWS V14.01,2013-03-22 19:03:00,
2013-03-22 15:08:00,80.1,55.5,29.96,ESE,121,2.5,4.2,43,0.00,,,0.00,VWS V14.01,2013-03-22 19:08:00,
2013-03-22 15:13:00,80.2,56.1,29.96,ESE,121,0.0,0.0,44,0.00,,,0.00,VWS V14.01,2013-03-22 19:13:00,
2013-03-22 15:18:00,80.4,55.9,29.95,ESE,121,0.0,0.0,43,0.00,,,0.00,VWS V14.01,2013-03-22 19:18:00,
2013-03-22 15:23:00,80.4,55.9,29.95,ESE,121,0.0,0.0,43,0.00,,,0.00,VWS V14.01,2013-03-22 19:23:00,
2013-03-22 15:28:00,80.4,55.6,29.95,ESE,121,0.0,0.0,43,0.00,,,0.00,VWS V14.01,2013-03-22 19:28:00,
2013-03-22 15:33:00,80.7,55.6,29.95,ESE,121,0.0,3.0,42,0.00,,,0.00,VWS V14.01,2013-03-22 19:33:00,
2013-03-22 15:38:00,80.7,53.8,29.95,SSE,167,0.0,4.5,40,0.00,,,0.00,VWS V14.01,2013-03-22 19:38:00,
2013-03-22 15:43:00,80.3,55.2,29.95,SSE,167,0.0,0.0,42,0.00,,,0.00,VWS V14.01,2013-03-22 19:43:00,
2013-03-22 15:48:00,80.4,55.4,29.94,SSE,167,0.0,0.0,42,0.00,,,0.00,VWS V14.01,2013-03-22 19:48:00,
2013-03-22 15:53:00,80.2,55.3,29.94,SSE,167,0.0,0.0,42,0.00,,,0.00,VWS V14.01,2013-03-22 19:53:00,
2013-03-22 15:58:00,80.1,54.6,29.94,SSE,167,0.0,0.0,41,0.00,,,0.00,VWS V14.01,2013-03-22 19:58:00,
2013-03-22 16:03:00,80.2,55.9,29.94,South,180,2.6,4.2,43,0.00,,,0.00,VWS V14.01,2013-03-22 20:03:00,
2013-03-22 16:08:00,80.3,56.2,29.94,South,180,0.0,0.0,44,0.00,,,0.00,VWS V14.01,2013-03-22 20:08:00,
2013-03-22 16:13:00,80.4,56.3,29.94,ESE,118,0.0,0.0,44,0.00,,,0.00,VWS V14.01,2013-03-22 20:13:00,
2013-03-22 16:18:00,80.2,54.9,29.94,ESE,118,0.0,0.0,42,0.00,,,0.00,VWS V14.01,2013-03-22 20:18:00,
2013-03-22 16:23:00,79.8,55.1,29.93,ESE,118,0.0,0.0,43,0.00,,,0.00,VWS V14.01,2013-03-22 20:23:00,
2013-03-22 16:28:00,79.7,56.1,29.93,ESE,118,0.0,0.0,44,0.00,,,0.00,VWS V14.01,2013-03-22 20:28:00,
2013-03-22 16:33:00,79.4,55.9,29.93,ESE,118,0.0,0.0,44,0.00,,,0.00,VWS V14.01,2013-03-22 20:33:00,
2013-03-22 16:38:00,79.3,55.9,29.93,ESE,118,0.0,0.0,45,0.00,,,0.00,VWS V14.01,2013-03-22 20:38:00,
2013-03-22 16:43:00,79.4,56.1,29.93,ESE,118,0.0,0.0,45,0.00,,,0.00,VWS V14.01,2013-03-22 20:43:00,
2013-03-22 16:48:00,79.3,56.3,29.93,ESE,118,0.0,0.0,45,0.00,,,0.00,VWS V14.01,2013-03-22 20:48:00,
2013-03-22 16:53:00,79.2,56.8,29.93,ESE,118,0.0,0.0,46,0.00,,,0.00,VWS V14.01,2013-03-22 20:53:00,
2013-03-22 16:58:00,79.2,55.8,29.93,ESE,118,0.0,0.0,45,0.00,,,0.00,VWS V14.01,2013-03-22 20:58:00,
2013-03-22 17:03:00,78.9,55.8,29.93,ESE,118,0.0,0.0,45,0.00,,,0.00,VWS V14.01,2013-03-22 21:03:00,
2013-03-22 17:08:00,79.2,57.0,29.92,ESE,118,0.0,0.0,46,0.00,,,0.00,VWS V14.01,2013-03-22 21:08:00,
2013-03-22 17:13:00,79.1,55.9,29.93,ESE,118,0.0,0.0,45,0.00,,,0.00,VWS V14.01,2013-03-22 21:13:00,
2013-03-22 17:18:00,78.9,56.2,29.93,ESE,118,0.0,0.0,46,0.00,,,0.00,VWS V14.01,2013-03-22 21:18:00,
2013-03-22 17:23:00,78.5,56.6,29.93,ESE,118,0.0,0.0,47,0.00,,,0.00,VWS V14.01,2013-03-22 21:23:00,
2013-03-22 17:28:00,77.9,57.2,29.93,ESE,118,0.0,0.0,49,0.00,,,0.00,VWS V14.01,2013-03-22 21:28:00,
2013-03-22 17:33:00,77.2,56.8,29.93,ESE,118,0.0,0.0,49,0.00,,,0.00,VWS V14.01,2013-03-22 21:33:00,
2013-03-22 17:38:00,76.6,56.9,29.93,ESE,118,0.0,0.0,50,0.00,,,0.00,VWS V14.01,2013-03-22 21:38:00,
2013-03-22 17:43:00,75.9,56.7,29.94,ESE,118,0.0,0.0,51,0.00,,,0.00,VWS V14.01,2013-03-22 21:43:00,
2013-03-22 17:48:00,75.8,56.7,29.94,ESE,118,0.0,0.0,52,0.00,,,0.00,VWS V14.01,2013-03-22 21:48:00,
2013-03-22 17:53:00,75.5,56.8,29.94,ESE,118,0.0,0.0,52,0.00,,,0.00,VWS V14.01,2013-03-22 21:53:00,
2013-03-22 17:58:00,74.9,56.6,29.94,ESE,118,0.0,0.0,53,0.00,,,0.00,VWS V14.01,2013-03-22 21:58:00,
2013-03-22 18:03:00,74.2,56.7,29.94,ESE,118,0.0,0.0,54,0.00,,,0.00,VWS V14.01,2013-03-22 22:03:00,
2013-03-22 18:08:00,73.9,56.7,29.94,ESE,118,0.0,0.0,55,0.00,,,0.00,VWS V14.01,2013-03-22 22:08:00,
2013-03-22 18:13:00,73.8,57.3,29.96,ESE,118,0.0,0.0,56,0.00,,,0.00,VWS V14.01,2013-03-22 22:13:00,
2013-03-22 18:18:00,73.2,60.0,29.95,ESE,118,0.0,0.0,63,0.03,,,0.03,VWS V14.01,2013-03-22 22:18:00,
2013-03-22 18:22:00,72.4,61.7,29.96,ESE,118,0.0,0.0,69,0.05,,,0.05,VWS V14.01,2013-03-22 22:22:00,
2013-03-22 18:27:00,71.2,61.7,29.96,ESE,118,0.0,0.0,72,0.06,,,0.06,VWS V14.01,2013-03-22 22:27:00,
2013-03-22 18:32:00,70.3,61.5,29.96,ESE,118,0.0,0.0,74,0.06,,,0.06,VWS V14.01,2013-03-22 22:32:00,
2013-03-22 18:37:00,69.4,61.8,29.96,ESE,118,0.0,0.0,77,0.06,,,0.06,VWS V14.01,2013-03-22 22:37:00,
2013-03-22 18:43:00,68.7,61.4,29.97,ESE,118,0.0,0.0,78,0.06,,,0.06,VWS V14.01,2013-03-22 22:43:00,
2013-03-22 18:48:00,68.5,61.8,29.98,ESE,118,0.0,0.0,79,0.06,,,0.06,VWS V14.01,2013-03-22 22:48:00,
2013-03-22 18:53:00,68.0,61.8,29.97,ESE,118,0.0,0.0,81,0.12,,,0.12,VWS V14.01,2013-03-22 22:53:00,
2013-03-22 18:58:00,67.4,61.3,29.98,ESE,118,0.0,0.0,81,0.14,,,0.14,VWS V14.01,2013-03-22 22:58:00,
2013-03-22 19:03:00,66.9,61.1,29.98,ESE,118,0.0,0.0,82,0.15,,,0.15,VWS V14.01,2013-03-22 23:03:00,
2013-03-22 19:08:00,66.5,61.3,29.99,ESE,118,0.0,0.0,83,0.15,,,0.15,VWS V14.01,2013-03-22 23:08:00,
2013-03-22 19:13:00,66.1,61.4,29.98,ESE,118,0.0,0.0,85,0.16,,,0.16,VWS V14.01,2013-03-22 23:13:00,
2013-03-22 19:18:00,65.8,61.2,29.99,ESE,118,0.0,0.0,85,0.15,,,0.16,VWS V14.01,2013-03-22 23:18:00,
2013-03-22 19:23:00,65.8,61.1,29.99,ESE,118,0.0,0.0,85,0.11,,,0.16,VWS V14.01,2013-03-22 23:23:00,
2013-03-22 19:28:00,65.4,60.9,29.99,ESE,118,0.0,0.0,86,0.10,,,0.16,VWS V14.01,2013-03-22 23:28:00,
2013-03-22 19:33:00,65.3,61.0,29.99,ESE,118,0.0,0.0,86,0.10,,,0.16,VWS V14.01,2013-03-22 23:33:00,
2013-03-22 19:38:00,65.4,61.4,29.99,ESE,118,0.0,0.0,87,0.10,,,0.16,VWS V14.01,2013-03-22 23:38:00,
2013-03-22 19:43:00,64.8,61.0,29.99,ESE,118,0.0,0.0,88,0.10,,,0.16,VWS V14.01,2013-03-22 23:43:00,
2013-03-22 19:48:00,65.1,61.4,29.99,ESE,118,0.0,0.0,88,0.10,,,0.16,VWS V14.01,2013-03-22 23:48:00,
2013-03-22 19:53:00,64.7,61.0,29.98,ESE,118,0.0,0.0,88,0.10,,,0.16,VWS V14.01,2013-03-22 23:53:00,
2013-03-22 19:58:00,64.8,61.1,29.99,ESE,118,0.0,0.0,88,0.03,,,0.16,VWS V14.01,2013-03-22 23:58:00,
2013-03-22 20:03:00,64.9,61.4,29.99,ESE,118,0.0,0.0,88,0.02,,,0.17,VWS V14.01,2013-03-23 00:03:00,
2013-03-22 20:08:00,65.0,61.4,29.99,ESE,118,0.0,0.0,88,0.02,,,0.17,VWS V14.01,2013-03-23 00:08:00,
2013-03-22 20:13:00,64.6,61.0,29.99,ESE,118,0.0,0.0,88,0.02,,,0.17,VWS V14.01,2013-03-23 00:13:00,
2013-03-22 20:18:00,64.7,61.3,29.99,ESE,118,0.0,0.0,89,0.01,,,0.17,VWS V14.01,2013-03-23 00:18:00,
2013-03-22 20:23:00,64.6,61.3,29.99,ESE,118,0.0,0.0,89,0.01,,,0.17,VWS V14.01,2013-03-23 00:23:00,
2013-03-22 20:28:00,64.7,61.6,29.99,ESE,118,0.0,0.0,90,0.01,,,0.17,VWS V14.01,2013-03-23 00:28:00,
2013-03-22 20:33:00,64.6,61.4,29.99,ESE,118,0.0,0.0,89,0.01,,,0.17,VWS V14.01,2013-03-23 00:33:00,
2013-03-22 20:38:00,64.6,61.5,29.99,ESE,118,0.0,0.0,90,0.01,,,0.17,VWS V14.01,2013-03-23 00:38:00,
2013-03-22 20:43:00,64.1,61.0,30.00,ESE,118,0.0,0.0,90,0.01,,,0.17,VWS V14.01,2013-03-23 00:43:00,
2013-03-22 20:48:00,64.6,61.5,30.00,ESE,118,0.0,0.0,90,0.01,,,0.17,VWS V14.01,2013-03-23 00:48:00,
2013-03-22 20:53:00,64.3,61.3,29.99,ESE,118,0.0,0.0,90,0.01,,,0.17,VWS V14.01,2013-03-23 00:53:00,
2013-03-22 20:58:00,64.3,61.3,30.00,ESE,118,0.0,0.0,90,0.01,,,0.17,VWS V14.01,2013-03-23 00:58:00,
2013-03-22 21:03:00,64.4,61.4,30.00,ESE,118,0.0,0.0,90,0.00,,,0.17,VWS V14.01,2013-03-23 01:03:00,
2013-03-22 21:08:00,64.5,61.6,30.00,ESE,118,0.0,0.0,90,0.00,,,0.17,VWS V14.01,2013-03-23 01:08:00,
2013-03-22 21:13:00,64.5,61.6,30.00,ESE,118,0.0,0.0,90,0.00,,,0.17,VWS V14.01,2013-03-23 01:13:00,
2013-03-22 21:18:00,64.4,61.5,30.01,ESE,118,0.0,0.0,90,0.00,,,0.17,VWS V14.01,2013-03-23 01:18:00,
2013-03-22 21:23:00,64.5,61.6,30.02,ESE,118,0.0,0.0,90,0.05,,,0.22,VWS V14.01,2013-03-23 01:23:00,
2013-03-22 21:28:00,64.3,61.5,30.02,ESE,118,0.0,0.0,91,0.06,,,0.23,VWS V14.01,2013-03-23 01:28:00,
2013-03-22 21:33:00,64.2,61.5,30.01,ESE,118,0.0,0.0,91,0.06,,,0.23,VWS V14.01,2013-03-23 01:33:00,
2013-03-22 21:38:00,63.7,61.0,30.01,ESE,118,0.0,0.0,91,0.06,,,0.23,VWS V14.01,2013-03-23 01:38:00,
2013-03-22 21:43:00,63.6,60.9,30.01,ESE,118,0.0,0.0,91,0.06,,,0.23,VWS V14.01,2013-03-23 01:43:00,
2013-03-22 21:48:00,63.5,60.7,30.02,ESE,118,0.0,0.0,91,0.06,,,0.23,VWS V14.01,2013-03-23 01:48:00,
2013-03-22 21:53:00,63.7,60.9,30.02,ESE,118,0.0,0.0,91,0.06,,,0.23,VWS V14.01,2013-03-23 01:53:00,
2013-03-22 21:58:00,63.3,60.5,30.01,ESE,118,0.0,0.0,90,0.06,,,0.23,VWS V14.01,2013-03-23 01:58:00,
2013-03-22 22:03:00,63.7,60.9,30.01,ESE,118,0.0,0.0,90,0.06,,,0.23,VWS V14.01,2013-03-23 02:03:00,
2013-03-22 22:08:00,63.7,60.9,30.02,ESE,118,0.0,0.0,91,0.06,,,0.23,VWS V14.01,2013-03-23 02:08:00,
2013-03-22 22:13:00,63.7,60.9,30.02,ESE,118,0.0,0.0,91,0.06,,,0.23,VWS V14.01,2013-03-23 02:13:00,
2013-03-22 22:18:00,63.9,61.1,30.01,ESE,118,0.0,0.0,91,0.07,,,0.24,VWS V14.01,2013-03-23 02:18:00,
2013-03-22 22:23:00,63.6,60.9,30.01,ESE,118,0.0,0.0,91,0.05,,,0.24,VWS V14.01,2013-03-23 02:23:00,
2013-03-22 22:28:00,63.3,60.6,30.01,ESE,118,0.0,0.0,91,0.01,,,0.24,VWS V14.01,2013-03-23 02:28:00,
2013-03-22 22:33:00,63.6,60.9,30.01,ESE,118,0.0,0.0,91,0.01,,,0.24,VWS V14.01,2013-03-23 02:33:00,
2013-03-22 22:38:00,63.4,60.7,30.02,ESE,118,0.0,0.0,91,0.01,,,0.24,VWS V14.01,2013-03-23 02:38:00,
2013-03-22 22:43:00,63.9,61.2,30.02,ESE,118,0.0,0.0,91,0.01,,,0.24,VWS V14.01,2013-03-23 02:43:00,
2013-03-22 22:48:00,63.5,60.8,30.02,ESE,118,0.0,0.0,91,0.01,,,0.24,VWS V14.01,2013-03-23 02:48:00,
2013-03-22 22:53:00,63.3,60.7,30.02,ESE,118,0.0,0.0,91,0.01,,,0.24,VWS V14.01,2013-03-23 02:53:00,
2013-03-22 22:58:00,63.4,60.8,30.02,ESE,118,0.0,0.0,91,0.01,,,0.24,VWS V14.01,2013-03-23 02:58:00,
2013-03-22 23:03:00,63.2,60.6,30.02,ESE,118,0.0,0.0,91,0.01,,,0.24,VWS V14.01,2013-03-23 03:03:00,
2013-03-22 23:08:00,63.2,60.6,30.02,ESE,118,0.0,0.0,91,0.01,,,0.24,VWS V14.01,2013-03-23 03:08:00,
2013-03-22 23:13:00,63.4,60.8,30.02,ESE,118,0.0,0.0,91,0.01,,,0.24,VWS V14.01,2013-03-23 03:13:00,
2013-03-22 23:18:00,63.5,60.9,30.02,ESE,118,0.0,0.0,91,0.01,,,0.24,VWS V14.01,2013-03-23 03:18:00,
2013-03-22 23:23:00,63.5,61.0,30.02,ESE,118,0.0,0.0,91,0.00,,,0.24,VWS V14.01,2013-03-23 03:23:00,
2013-03-22 23:28:00,63.3,60.8,30.02,ESE,118,0.0,0.0,91,0.00,,,0.24,VWS V14.01,2013-03-23 03:28:00,
2013-03-22 23:33:00,63.3,60.8,30.01,ESE,118,0.0,0.0,92,0.00,,,0.24,VWS V14.01,2013-03-23 03:33:00,
2013-03-22 23:38:00,63.7,61.2,30.02,ESE,118,0.0,0.0,92,0.00,,,0.24,VWS V14.01,2013-03-23 03:38:00,
2013-03-22 23:43:00,63.5,61.0,30.01,ESE,118,0.0,0.0,92,0.00,,,0.24,VWS V14.01,2013-03-23 03:43:00,
2013-03-22 23:48:00,64.2,61.8,30.02,ESE,118,0.0,0.0,92,0.00,,,0.24,VWS V14.01,2013-03-23 03:48:00,
2013-03-22 23:53:00,63.6,61.2,30.02,ESE,118,0.0,0.0,92,0.00,,,0.24,VWS V14.01,2013-03-23 03:53:00,
2013-03-22 23:58:00,64.0,61.5,30.02,ESE,118,0.0,0.0,92,0.00,,,0.24,VWS V14.01,2013-03-23 03:58:00,